Relevés horaires Melle (Belgique)


Relevés horaires à Melle - Samedi 28 Nov. 2015
Heure UTC1 Température [°C] Vent [km/h] Hum. [%] Pres.4 [hPa] Visi. [Km] Nébu. [octa] Préc.5 [mm] Cond.
2m. Res. Ros. Dir.2 Vit. Moy. Raf.3
23:00 7.2 4 5.2 SSO 18.5 20.4 31.5 87 1010.1(-1.9/3h) -- -- -- --
22:00 7.3 4.1 4.5 SO 18.5 20.4 33.3 82 1010.9(-2.1/3h) -- -- -- --
21:00 7.8 4.8 4.1 SSO 18.5 20.4 29.6 77 1011.3(-2.3/3h) -- -- -- --
20:00 7.5 4.4 3.9 SSO 18.5 18.5 27.8 78 1012(-2.6/3h) -- -- -- --
19:00 7.1 4.1 4.2 SO 16.7 16.7 25.9 82 1013(-2.1/3h) -- -- -- --
18:00 7.1 4.6 4.2 SSO 13.0 13.0 24.1 82 1013.6(-1.7/3h) -- -- 2/12h
--
17:00 7.1 5 4.8 SO 11.1 13.0 22.2 85 1014.6(-1.5/3h) -- -- -- --
16:00 7.2 5.1 4.1 SO 11.1 13.0 22.2 81 1015.1(-1.3/3h) -- -- -- --
15:00 7.3 5.5 3.2 SSO 9.3 13.0 18.5 75 1015.3(-1.3/3h) -- -- -- --
14:00 7.8 6.1 2.4 SO 9.3 13.0 18.5 69 1016.1(-0.6/3h) -- -- -- --
13:00 7.8 6.1 2.2 SO 9.3 11.1 16.7 68 1016.4(-0.1/3h) -- -- -- --
12:00 7.2 5.4 2.8 SO 9.3 9.3 14.8 74 1016.6(0.7/3h) -- -- 0/0h
0/6h
--
11:00 7.0 5.6 2.8 OSO 7.4 9.3 14.8 75 1016.7(1.4/3h) -- -- -- --
10:00 5.7 3.6 2.0 OSO 9.3 9.3 14.8 77 1016.5(1.9/3h) -- -- -- --
09:00 4.8 3.6 1.5 OSO 5.6 7.4 11.1 79 1016(2.3/3h) -- -- -- --
08:00 3.8 2.5 1.1 OSO 5.6 5.6 9.3 82 1015.4(2.9/3h) -- -- -- --
07:00 4.7 3.5 1.4 O 5.6 7.4 11.1 79 1014.7(3.2/3h) -- -- -- --
06:00 4.8 3.6 1.7 O 5.6 16.7 25.9 80 1013.6(3.6/3h) -- -- 3/12h
--
05:00 5.9 4.3 2.4 ONO 7.4 13.0 18.5 78 1012.4(4.2/3h) -- -- -- --
04:00 6.2 3.5 2.7 ONO 13.0 16.7 22.2 78 1011.4(4.0/3h) -- -- -- --
03:00 6.7 3.9 5.0 NO 14.8 14.8 25.9 89 1010(3.0/3h) -- -- -- --
02:00 7.5 5.8 6.6 O 9.3 11.1 16.7 94 1008.2(0.7/3h) -- -- -- --
01:00 6.2 3.9 5.2 SO 11.1 14.8 20.4 93 1007.4(-1.1/3h) -- -- -- --
00:00 5.4 2.3 4.1 SSO 14.8 16.7 24.1 91 1007(-2.2/3h) -- -- 0.7/6h
--

1 Coordinated Universal Time. Actuellement il est 21:00 locale et 19:00 UTC.

2 Le vent souffle depuis la direction indiquée vers la direction oposée.

3 Les rafales max. sont disponible 40 min après l'heure du relevé.

4 Pour les stations d'altitude (plus de 600m) le géopotentiel du niveau le plus proche de la pression obligatoire est indiqué.

5 Les stations disposant d'un diffuseur peuvent indiquer "trace". Cela signifie que des précipitations ont touchés le sol mais que la quantité est inférieure à 0.1 mm.

Récapitulatif de la journée
Température [°C] Vent [km/h] Ensoleillement4 [h] Precipitations totale5 [mm] Pression [Hpa]
Min1 Max.2 Moy.3 Max. Min Max.
4.6 8.0 13.5 33.3 0 h 0 min 0 1007.0 1016.7

1 Température minimale relevée entre 18:00 UTC la veille et 18:00 UTC le jour donné.

2 Température maximale relevée entre 06:00 UTC le jour donné et 06:00 UTC le lendemain.

3 Vent moyen de la journée basé sur les relevés horaires.

4 Ensoleillement en heures relevé entre 06:00 UTC la veille et 06:00 UTC le jour donné.

5 Précipitations totales tombées entre 06:00 UTC la jour donné et 06:00 UTC le lendemain.

Graphiques horaires